Terminal Aerodrome Forecast
Issued by NWS

Home | Current Version | Previous Version | Text Only | Print | Product List | Glossary On
Versions: 1 2 3 4 5 6 7 8 9 10 11 12 13 14 15
181
FTUS43 KDTX 040525
TAFMBS
TAF
KMBS 040525Z 0406/0506 24005KT P6SM OVC040
     FM041400 16007KT P6SM BKN040 OVC080
     FM042100 14006KT 1SM -SN BKN006 OVC012
     FM050400 24005KT 4SM BR BKN010 OVC025=

USA.gov is the U.S. government's official web portal to all federal, state and local government web resources and services.